Terminal Aerodrome Forecast
Issued by NWS

Home | Current Version | Previous Version | Text Only | Print | Product List | Glossary On
Versions: 1 2 3 4 5 6 7 8 9 10 11 12 13 14 15 16 17
000
FTUS46 KLOX 200500
TAFBUR
TAF
KBUR 200533Z 2006/2106 17007KT P6SM SCT200
     FM200800 VRB03KT P6SM SKC
     FM201800 14004KT P6SM SKC
     FM202100 18008KT P6SM SKC
     FM210200 VRB05KT P6SM SKC=

USA.gov is the U.S. government's official web portal to all federal, state and local government web resources and services.